Monument, CO

11:38 PM MDT on September 15, 2014 (GMT -0600)
Williams Ranch | Change Station
CLOSE
Current Station
Personal Weather Station
Location: Monument, CO
Elevation: 7230 ft
Nearby Weather Stations

Elev 7230 ft 39.11 °N, 104.86 °W | Updated 10 seconds ago

Overcast
Overcast
54.1 °F
Feels Like 54.1 °F
N
10.4
Wind Variable Wind from South
Gusts 10.4 mph

Today
High -- | Low -- °F
--% Chance of Precip.
Yesterday
High -- | Low -- °F
Precip. -- in
6:40 AM 7:07 PM
Waning Gibbous, 49% visible
Pressure 30.20 in
Visibility 10.0 miles
Clouds Overcast 600 ft
Dew Point 47 °F
Humidity 78%
Rainfall 0.00 in
Snow Depth 0 in , 187 in , 0 in
UV 0 out of 12
Pollen 5.60 out of 12
Ozone Good
PM2.5 Good
Flu Activity Not available.
METAR KAFF 160458Z AUTO 16010KT 10SM OVC006 12/11 A3038 RMK AO2 SLP225 T01190105

More Conditions Fewer Conditions

Pressure 30.20 in
Visibility 10.0 miles
Clouds Overcast 600 ft
Dew Point 47 °F
Humidity 78%
Rainfall 0.00 in
Snow Depth 0 in , 187 in , 0 in
UV 0 out of 12
Pollen 5.60 out of 12
Ozone Good
PM2.5 Good
Flu Activity Not available.
METAR KAFF 160458Z AUTO 16010KT 10SM OVC006 12/11 A3038 RMK AO2 SLP225 T01190105

More Conditions Fewer Conditions

10-Day Weather Forecast

Almanac

Astronomy

Sep. 15, 2014 Rise Set
Actual Time 6:40 AM MDT 7:07 PM MDT
Civil Twilight 6:13 AM MDT 7:34 PM MDT
Nautical Twilight 5:42 AM MDT 8:05 PM MDT
Astronomical Twilight 5:10 AM MDT 8:38 PM MDT
Moon 11:55 PM MDT (9/15) 1:40 PM MDT (9/15)
Length of Visible Light 13h 20m
Length of Day
12h 26m
Tomorrow will be 2m 30s shorter.
Waning Gibbous, 49% of the Moon is Illuminated
Sep 16
Waning Gibbous
Sep 24
New
Oct 1
First Quarter
Oct 8
Full
Oct 15
Last Quarter

Yesterday's Extremes

State Highs State Lows

Community

WunderPhotos

Upload Photos

1,753,702 photos uploaded!

Nearby

Air Quality

  Air Quality AQ Index Pollutant
Yesterday Good
OZONE
Yesterday Good
PM2.5
Current Good
OZONE
Current Good
PM2.5
Monday Good
PM2.5
Monday Good
OZONE
Tuesday Good
PM2.5
Tuesday Good
OZONE

Snow Depth

Station Depth Elevation
Zirkel 0 in 9340 ft
Independence Pass 187 in 10600 ft
Joe Wright 0 in 10120 ft
Lizard Head Pass 1 in 10200 ft
Overland Reservoir 0 in 9880 ft

Earthquake Activity

City Distance Mag. Time & Date
No recent earthquake activity has been reported nearby.
Minimum magnitude displayed is 2.5.

Coastal Water Temperatures

Place Temperature
No Stations Reporting

Nearby Weather Stations